Terminal Aerodrome Forecast
Issued by NWS

Home | Current Version | Previous Version | Text Only | Print | Product List | Glossary On
Versions: 1 2 3 4 5 6 7 8 9 10 11 12 13 14 15 16 17 18 19
534
FTUS44 KLZK 222111 AAA
TAFLLQ
TAF AMD
KLLQ 222111Z 2221/2318 07003KT P6SM VCTS SCT035CB BKN100
      TEMPO 2221/2222 VRB10G20KT 3SM TSRA SCT015CB
     FM230100 00000KT P6SM SCT100 SCT250
     FM231000 00000KT 5SM BR SCT100 BKN250
      TEMPO 2310/2313 2SM BR BKN005
     FM231400 08003KT P6SM VCTS SCT025CB BKN100=

USA.gov is the U.S. government's official web portal to all federal, state and local government web resources and services.